createdAt,value
2019-03-21T00:00:50.012Z,2.00
2019-03-21T00:03:50.717Z,2.00
2019-03-21T00:06:51.051Z,2.00
2019-03-21T00:09:51.735Z,2.00
2019-03-21T00:12:52.746Z,1.90
2019-03-21T00:15:53.390Z,1.90
2019-03-21T00:18:53.685Z,1.80
2019-03-21T00:21:54.006Z,1.80
2019-03-21T00:24:54.490Z,1.70
2019-03-21T00:27:55.083Z,1.60
2019-03-21T00:30:55.461Z,1.70
2019-03-21T00:33:56.667Z,1.70
2019-03-21T00:36:57.179Z,1.60
2019-03-21T00:39:57.670Z,1.50
2019-03-21T00:42:58.374Z,1.50
2019-03-21T00:45:59.097Z,1.40
2019-03-21T00:48:59.426Z,1.40
2019-03-21T00:51:59.982Z,1.50
2019-03-21T00:55:00.535Z,1.40
2019-03-21T00:58:01.770Z,1.20
2019-03-21T01:01:02.884Z,1.30
2019-03-21T01:04:03.257Z,1.20
2019-03-21T01:07:04.271Z,1.10
2019-03-21T01:10:05.391Z,1.00
2019-03-21T01:13:06.394Z,0.90
2019-03-21T01:16:06.862Z,1.00
2019-03-21T01:19:07.660Z,1.00
2019-03-21T01:22:08.122Z,1.00
2019-03-21T01:25:08.609Z,1.00
2019-03-21T01:28:09.127Z,0.90
2019-03-21T01:31:09.536Z,0.80
2019-03-21T01:34:10.503Z,0.70
2019-03-21T01:37:10.979Z,0.60
2019-03-21T01:40:11.541Z,0.60
2019-03-21T01:43:12.100Z,0.60
2019-03-21T01:46:12.755Z,0.60
2019-03-21T01:49:13.370Z,0.60
2019-03-21T01:52:14.288Z,0.50
2019-03-21T01:55:14.813Z,0.40
2019-03-21T01:58:15.140Z,0.30
2019-03-21T02:01:15.837Z,0.40
2019-03-21T02:04:16.222Z,0.40
2019-03-21T02:07:16.858Z,0.40
2019-03-21T02:10:18.165Z,0.30
2019-03-21T02:13:18.649Z,0.40
2019-03-21T02:16:19.291Z,0.30
2019-03-21T02:19:19.913Z,0.20
2019-03-21T02:22:20.442Z,0.10
2019-03-21T02:25:20.895Z,0.20
2019-03-21T02:28:21.329Z,0.10
2019-03-21T02:31:22.154Z,0.10
2019-03-21T02:34:22.500Z,-0.10
2019-03-21T02:37:23.186Z,0.00
2019-03-21T02:40:23.619Z,-0.10
2019-03-21T02:43:23.885Z,-0.30
2019-03-21T02:46:24.310Z,-0.40
2019-03-21T02:49:24.733Z,-0.50
2019-03-21T02:52:25.195Z,-0.30
2019-03-21T02:55:26.646Z,-0.30
2019-03-21T02:58:27.271Z,-0.20
2019-03-21T03:01:27.805Z,-0.30
2019-03-21T03:04:28.952Z,-0.30
2019-03-21T03:07:29.982Z,-0.40
2019-03-21T03:10:30.871Z,-0.40
2019-03-21T03:13:31.542Z,-0.40
2019-03-21T03:16:32.146Z,-0.30
2019-03-21T03:19:33.422Z,-0.40
2019-03-21T03:22:33.801Z,-0.40
2019-03-21T03:25:35.309Z,-0.50
2019-03-21T03:28:35.697Z,-0.50
2019-03-21T03:31:36.155Z,-0.50
2019-03-21T03:34:36.573Z,-0.60
2019-03-21T03:37:37.409Z,-0.50
2019-03-21T03:40:38.111Z,-0.60
2019-03-21T03:43:38.510Z,-0.60
2019-03-21T03:46:39.738Z,-0.60
2019-03-21T03:49:40.257Z,-0.60
2019-03-21T03:52:40.843Z,-0.60
2019-03-21T03:55:41.372Z,-0.70
2019-03-21T03:58:42.159Z,-0.80
2019-03-21T04:01:42.693Z,-0.80
2019-03-21T04:04:43.165Z,-0.70
2019-03-21T04:07:44.433Z,-0.80
2019-03-21T04:10:44.790Z,-1.00
2019-03-21T04:13:45.082Z,-1.00
2019-03-21T04:16:45.731Z,-1.00
2019-03-21T04:19:46.372Z,-1.00
2019-03-21T04:22:46.910Z,-1.00
2019-03-21T04:25:48.061Z,-1.00
2019-03-21T04:28:56.018Z,-1.00
2019-03-21T04:32:03.947Z,-1.20
2019-03-21T04:35:04.630Z,-1.10
2019-03-21T04:38:05.301Z,-1.20
2019-03-21T04:41:05.844Z,-1.30
2019-03-21T04:44:06.295Z,-1.40
2019-03-21T04:47:07.470Z,-1.40
2019-03-21T04:50:07.746Z,-1.30
2019-03-21T04:53:08.194Z,-1.40
2019-03-21T04:56:08.898Z,-1.50
2019-03-21T04:59:09.792Z,-1.40
2019-03-21T05:02:10.516Z,-1.40
2019-03-21T05:05:11.538Z,-1.30
2019-03-21T05:08:12.142Z,-1.40
2019-03-21T05:11:12.965Z,-1.40
2019-03-21T05:14:13.583Z,-1.30
2019-03-21T05:17:14.045Z,-1.30
2019-03-21T05:20:14.776Z,-1.30
2019-03-21T05:23:15.111Z,-1.50
2019-03-21T05:26:15.614Z,-1.40
2019-03-21T05:29:16.085Z,-1.40
2019-03-21T05:32:16.591Z,-1.40
2019-03-21T05:35:17.205Z,-1.40
2019-03-21T05:38:17.773Z,-1.40
2019-03-21T05:41:18.430Z,-1.40
2019-03-21T05:44:19.138Z,-1.40
2019-03-21T05:47:19.522Z,-1.30
2019-03-21T05:50:19.929Z,-1.30
2019-03-21T05:53:20.542Z,-1.30
2019-03-21T05:56:20.917Z,-1.20
2019-03-21T05:59:21.817Z,-1.10
2019-03-21T06:02:22.362Z,-1.00
2019-03-21T06:05:22.707Z,-0.90
2019-03-21T06:08:23.114Z,-1.00
2019-03-21T06:11:23.504Z,-0.80
2019-03-21T06:14:23.802Z,-0.70
2019-03-21T06:17:24.158Z,-0.60
2019-03-21T06:20:24.897Z,-0.50
2019-03-21T06:23:25.475Z,-0.30
2019-03-21T06:26:26.242Z,-0.30
2019-03-21T06:29:26.501Z,-0.10
2019-03-21T06:32:27.423Z,-0.10
2019-03-21T06:35:28.229Z,0.00
2019-03-21T06:38:28.605Z,0.20
2019-03-21T06:41:29.246Z,0.30
2019-03-21T06:44:29.898Z,0.40
2019-03-21T06:47:30.654Z,0.50
2019-03-21T06:50:30.964Z,0.60
2019-03-21T06:53:31.661Z,0.70
2019-03-21T06:56:32.821Z,0.70
2019-03-21T06:59:33.102Z,1.00
2019-03-21T07:02:33.698Z,1.10
2019-03-21T07:05:34.855Z,1.20
2019-03-21T07:08:35.218Z,1.40
2019-03-21T07:11:35.589Z,1.50
2019-03-21T07:14:36.233Z,1.60
2019-03-21T07:17:36.669Z,1.70
2019-03-21T07:20:37.141Z,1.80
2019-03-21T07:23:37.970Z,2.00
2019-03-21T07:26:38.188Z,2.10
2019-03-21T07:29:38.721Z,2.20
2019-03-21T07:32:39.182Z,2.30
2019-03-21T07:35:40.381Z,2.50
2019-03-21T07:38:41.181Z,2.70
2019-03-21T07:41:41.742Z,2.80
2019-03-21T07:44:42.370Z,3.00
2019-03-21T07:47:43.217Z,3.20
2019-03-21T07:50:44.486Z,3.40
2019-03-21T07:53:45.005Z,3.50
2019-03-21T07:56:46.331Z,3.70
2019-03-21T07:59:47.538Z,3.90
2019-03-21T08:02:48.814Z,4.00
2019-03-21T08:05:49.602Z,4.20
2019-03-21T08:08:49.929Z,4.50
2019-03-21T08:11:50.811Z,4.60
2019-03-21T08:14:52.034Z,4.90
2019-03-21T08:17:52.717Z,5.50
2019-03-21T08:20:58.383Z,6.50
2019-03-21T08:23:55.546Z,7.20
2019-03-21T08:26:56.114Z,7.60
2019-03-21T08:29:56.766Z,7.90
2019-03-21T08:32:57.146Z,8.80
2019-03-21T08:35:57.729Z,8.50
2019-03-21T08:38:58.127Z,9.10
2019-03-21T08:41:58.622Z,9.70
2019-03-21T08:44:59.229Z,9.60
2019-03-21T08:47:59.546Z,9.40
2019-03-21T08:51:08.100Z,9.50
2019-03-21T08:54:02.710Z,9.60
2019-03-21T08:57:03.686Z,9.80
2019-03-21T09:00:03.952Z,10.10
2019-03-21T09:03:04.573Z,10.60
2019-03-21T09:06:05.691Z,10.40
2019-03-21T09:09:06.902Z,10.70
2019-03-21T09:12:07.502Z,11.00
2019-03-21T09:15:08.654Z,11.40
2019-03-21T09:18:09.967Z,12.00
2019-03-21T09:21:19.195Z,12.30
2019-03-21T09:24:13.373Z,12.60
2019-03-21T09:27:15.011Z,13.00
2019-03-21T09:33:44.958Z,12.00
2019-03-21T09:36:46.934Z,12.70
2019-03-21T09:39:52.248Z,12.60
2019-03-21T09:42:53.708Z,12.80
2019-03-21T09:45:55.533Z,13.40
2019-03-21T09:48:56.963Z,13.90
2019-03-21T09:51:58.275Z,13.90
2019-03-21T09:55:00.351Z,13.60
2019-03-21T09:58:01.707Z,14.40
2019-03-21T10:01:03.265Z,14.00
2019-03-21T10:04:05.057Z,14.50
2019-03-21T10:07:06.539Z,14.80
2019-03-21T10:10:08.197Z,14.80
2019-03-21T10:13:09.004Z,14.10
2019-03-21T10:16:10.428Z,14.30
2019-03-21T10:19:11.822Z,14.90
2019-03-21T10:22:13.265Z,15.90
2019-03-21T10:25:14.476Z,16.30
2019-03-21T10:28:15.786Z,15.20
2019-03-21T10:31:17.157Z,14.30
2019-03-21T10:34:19.014Z,15.10
2019-03-21T10:37:20.823Z,16.50
2019-03-21T10:40:22.115Z,16.90
2019-03-21T10:43:23.298Z,16.70
2019-03-21T10:46:24.514Z,15.50
2019-03-21T10:49:26.014Z,16.40
2019-03-21T10:52:27.168Z,16.70
2019-03-21T10:55:28.266Z,17.20
2019-03-21T10:58:29.793Z,18.90
2019-03-21T11:01:30.989Z,18.50
2019-03-21T11:04:32.414Z,18.60
2019-03-21T11:07:34.555Z,18.30
2019-03-21T11:10:40.250Z,17.70
2019-03-21T11:13:41.379Z,19.60
2019-03-21T11:16:42.652Z,18.40
2019-03-21T11:19:43.953Z,19.10
2019-03-21T11:22:45.521Z,19.70
2019-03-21T11:25:46.861Z,19.90
2019-03-21T11:28:48.238Z,19.00
2019-03-21T11:31:50.014Z,21.10
2019-03-21T11:34:51.229Z,22.10
2019-03-21T11:37:52.621Z,22.00
2019-03-21T11:40:54.074Z,22.70
2019-03-21T11:43:54.974Z,21.30
2019-03-21T11:46:56.474Z,21.90
2019-03-21T11:49:57.399Z,21.10
2019-03-21T11:52:58.850Z,20.40
2019-03-21T11:56:00.193Z,19.90
2019-03-21T11:59:00.935Z,20.80
2019-03-21T12:02:01.642Z,21.60
2019-03-21T12:05:03.059Z,20.80
2019-03-21T12:08:04.293Z,20.70
2019-03-21T12:11:05.105Z,21.30
2019-03-21T12:14:06.508Z,20.80
2019-03-21T12:17:07.139Z,21.30
2019-03-21T12:20:08.506Z,21.40
2019-03-21T12:23:09.730Z,22.20
2019-03-21T12:26:10.685Z,22.20
2019-03-21T12:29:11.455Z,22.50
2019-03-21T12:32:12.433Z,22.70
2019-03-21T12:35:14.166Z,22.40
2019-03-21T12:38:15.338Z,22.80
2019-03-21T12:41:16.249Z,22.90
2019-03-21T12:44:17.638Z,23.20
2019-03-21T12:47:30.583Z,22.40
2019-03-21T12:50:21.922Z,24.30
2019-03-21T12:53:23.051Z,22.80
2019-03-21T12:56:23.583Z,21.80
2019-03-21T12:59:24.211Z,20.10
2019-03-21T13:02:32.144Z,20.50
2019-03-21T13:05:27.664Z,21.90
2019-03-21T13:08:33.861Z,23.10
2019-03-21T13:11:19.786Z,24.60
2019-03-21T13:14:27.937Z,22.30
2019-03-21T13:17:29.115Z,22.50
2019-03-21T13:20:30.307Z,22.10
2019-03-21T13:23:30.891Z,21.60
2019-03-21T13:26:31.493Z,20.90
2019-03-21T13:29:20.356Z,22.70
2019-03-21T13:32:28.507Z,23.00
2019-03-21T13:35:36.746Z,22.70
2019-03-21T13:38:37.620Z,21.90
2019-03-21T13:41:38.614Z,22.40
2019-03-21T13:44:40.222Z,22.60
2019-03-21T13:47:40.834Z,23.90
2019-03-21T13:50:41.489Z,22.50
2019-03-21T13:53:42.333Z,23.50
2019-03-21T13:56:43.114Z,22.00
2019-03-21T13:59:43.775Z,22.40
2019-03-21T14:02:44.473Z,21.40
2019-03-21T14:05:45.141Z,20.30
2019-03-21T14:08:46.086Z,21.20
2019-03-21T14:11:47.626Z,21.00
2019-03-21T14:14:48.968Z,21.30
2019-03-21T14:17:50.383Z,21.60
2019-03-21T14:20:51.805Z,21.10
2019-03-21T14:23:53.234Z,20.70
2019-03-21T14:26:54.014Z,20.40
2019-03-21T14:30:01.292Z,20.70
2019-03-21T14:32:59.038Z,20.90
2019-03-21T14:35:59.877Z,20.40
2019-03-21T14:39:00.743Z,20.80
2019-03-21T14:42:01.916Z,20.80
2019-03-21T14:45:03.387Z,21.00
2019-03-21T14:48:04.005Z,20.50
2019-03-21T14:51:05.246Z,19.70
2019-03-21T14:54:06.443Z,20.00
2019-03-21T14:57:07.225Z,20.60
2019-03-21T15:00:07.845Z,22.00
2019-03-21T15:03:08.721Z,21.60
2019-03-21T15:06:09.838Z,20.40
2019-03-21T15:09:11.160Z,20.60
2019-03-21T15:12:12.650Z,21.10
2019-03-21T15:15:13.962Z,20.00
2019-03-21T15:18:15.209Z,19.70
2019-03-21T15:21:16.650Z,19.70
2019-03-21T15:24:17.563Z,18.80
2019-03-21T15:27:19.183Z,18.70
2019-03-21T15:30:20.793Z,18.90
2019-03-21T15:33:22.044Z,19.50
2019-03-21T15:36:23.380Z,18.30
2019-03-21T15:39:26.252Z,19.50
2019-03-21T15:42:27.383Z,19.40
2019-03-21T15:45:28.835Z,18.20
2019-03-21T15:48:30.559Z,18.20
2019-03-21T15:51:31.683Z,18.10
2019-03-21T15:54:33.154Z,17.40
2019-03-21T15:57:34.855Z,18.20
2019-03-21T16:00:36.598Z,17.50
2019-03-21T16:03:38.515Z,17.20
2019-03-21T16:06:40.089Z,16.90
2019-03-21T16:09:41.519Z,16.50
2019-03-21T16:12:43.127Z,15.90
2019-03-21T16:15:44.799Z,15.70
2019-03-21T16:18:50.189Z,15.70
2019-03-21T16:21:51.458Z,15.70
2019-03-21T16:24:52.699Z,15.70
2019-03-21T16:27:54.462Z,15.30
2019-03-21T16:30:56.056Z,15.40
2019-03-21T16:36:41.378Z,16.40
2019-03-21T16:39:42.718Z,16.40
2019-03-21T16:42:43.896Z,15.90
2019-03-21T16:45:45.446Z,15.80
2019-03-21T16:48:46.750Z,15.70
2019-03-21T16:51:47.951Z,15.40
2019-03-21T16:54:37.030Z,15.30
2019-03-21T16:57:45.551Z,15.10
2019-03-21T17:00:47.291Z,14.70
2019-03-21T17:03:48.843Z,14.50
2019-03-21T17:06:57.150Z,14.70
2019-03-21T17:13:33.757Z,14.20
2019-03-21T17:16:35.081Z,14.10
2019-03-21T17:19:37.001Z,13.90
2019-03-21T17:22:39.003Z,13.60
2019-03-21T17:25:27.599Z,13.40
2019-03-21T17:28:35.518Z,13.30
2019-03-21T17:31:36.927Z,13.10
2019-03-21T17:34:37.888Z,12.90
2019-03-21T17:37:39.218Z,12.70
2019-03-21T17:40:42.015Z,12.50
2019-03-21T17:43:42.426Z,12.30
2019-03-21T17:46:43.337Z,12.20
2019-03-21T17:49:43.926Z,12.00
2019-03-21T17:52:44.523Z,12.10
2019-03-21T17:55:44.963Z,12.10
2019-03-21T17:58:45.830Z,12.10
2019-03-21T18:01:46.218Z,12.10
2019-03-21T18:04:46.836Z,12.10
2019-03-21T18:07:47.156Z,12.10
2019-03-21T18:10:48.031Z,12.10
2019-03-21T18:13:49.311Z,12.00
2019-03-21T18:16:49.737Z,11.80
2019-03-21T18:19:50.323Z,11.50
2019-03-21T18:22:50.797Z,11.40
2019-03-21T18:25:51.215Z,11.20
2019-03-21T18:28:51.638Z,11.10
2019-03-21T18:31:52.338Z,11.00
2019-03-21T18:34:53.555Z,10.90
2019-03-21T18:37:54.180Z,10.70
2019-03-21T18:40:54.532Z,10.50
2019-03-21T18:43:55.767Z,10.40
2019-03-21T18:46:56.647Z,10.20
2019-03-21T18:49:45.281Z,9.80
2019-03-21T18:52:53.354Z,9.50
2019-03-21T18:55:53.632Z,9.70
2019-03-21T18:58:54.046Z,9.30
2019-03-21T19:01:58.826Z,9.10
2019-03-21T19:04:57.203Z,8.90
2019-03-21T19:07:57.540Z,8.80
2019-03-21T19:10:58.702Z,8.80
2019-03-21T19:13:47.371Z,8.90
2019-03-21T19:19:48.569Z,8.90
2019-03-21T19:22:49.535Z,8.80
2019-03-21T19:25:50.111Z,8.80
2019-03-21T19:28:50.677Z,8.70
2019-03-21T19:31:51.210Z,8.60
2019-03-21T19:34:51.535Z,8.30
2019-03-21T19:37:52.095Z,8.20
2019-03-21T19:40:52.784Z,8.20
2019-03-21T19:43:53.675Z,7.90
2019-03-21T19:46:54.193Z,8.00
2019-03-21T19:49:54.819Z,7.70
2019-03-21T19:52:55.395Z,7.90
2019-03-21T19:56:07.806Z,7.70
2019-03-21T19:59:01.000Z,7.50
2019-03-21T20:02:00.775Z,7.30
2019-03-21T20:05:01.351Z,7.30
2019-03-21T20:08:01.685Z,7.30
2019-03-21T20:11:02.316Z,7.30
2019-03-21T20:14:04.103Z,7.10
2019-03-21T20:17:04.703Z,6.90
2019-03-21T20:19:53.518Z,6.80
2019-03-21T20:23:01.408Z,6.80
2019-03-21T20:26:02.239Z,6.70
2019-03-21T20:29:02.802Z,6.40
2019-03-21T20:32:03.972Z,6.50
2019-03-21T20:35:04.382Z,6.40
2019-03-21T20:38:05.536Z,6.40
2019-03-21T20:41:06.784Z,6.20
2019-03-21T20:44:15.159Z,6.00
2019-03-21T20:47:10.228Z,5.70
2019-03-21T20:50:10.949Z,5.80
2019-03-21T20:53:11.278Z,5.90
2019-03-21T20:56:12.410Z,5.80
2019-03-21T20:59:13.059Z,5.80
2019-03-21T21:02:13.527Z,5.70
2019-03-21T21:05:14.534Z,5.70
2019-03-21T21:08:14.832Z,5.50
2019-03-21T21:11:15.627Z,5.40
2019-03-21T21:14:15.952Z,5.30
2019-03-21T21:17:16.602Z,5.30
2019-03-21T21:20:17.972Z,5.10
2019-03-21T21:23:18.326Z,5.00
2019-03-21T21:26:18.704Z,5.00
2019-03-21T21:29:19.792Z,5.00
2019-03-21T21:32:20.147Z,4.90
2019-03-21T21:35:21.226Z,4.80
2019-03-21T21:38:21.605Z,4.70
2019-03-21T21:41:22.192Z,4.60
2019-03-21T21:44:23.245Z,4.60
2019-03-21T21:47:24.462Z,4.60
2019-03-21T21:50:25.567Z,4.50
2019-03-21T21:53:26.488Z,4.50
2019-03-21T21:56:26.991Z,4.40
2019-03-21T21:59:27.409Z,4.30
2019-03-21T22:02:27.695Z,4.30
2019-03-21T22:05:28.150Z,4.20
2019-03-21T22:08:29.258Z,4.10
2019-03-21T22:11:29.749Z,4.00
2019-03-21T22:14:30.553Z,3.80
2019-03-21T22:17:31.090Z,3.10
2019-03-21T22:20:32.001Z,3.50
2019-03-21T22:23:32.444Z,3.70
2019-03-21T22:26:32.734Z,3.70
2019-03-21T22:29:33.113Z,3.70
2019-03-21T22:32:34.191Z,3.70
2019-03-21T22:35:34.794Z,3.60
2019-03-21T22:38:35.202Z,3.50
2019-03-21T22:41:35.479Z,3.40
2019-03-21T22:44:36.755Z,3.50
2019-03-21T22:47:37.397Z,3.50
2019-03-21T22:50:38.184Z,3.30
2019-03-21T22:53:38.573Z,3.40
2019-03-21T22:56:41.459Z,3.20
2019-03-21T22:59:41.374Z,3.20
2019-03-21T23:02:42.560Z,3.20
2019-03-21T23:05:43.020Z,3.20
2019-03-21T23:08:43.332Z,3.20
2019-03-21T23:11:43.855Z,3.10
2019-03-21T23:14:44.513Z,3.00
2019-03-21T23:17:45.759Z,3.00
2019-03-21T23:20:46.529Z,2.90
2019-03-21T23:23:47.773Z,2.90
2019-03-21T23:26:52.733Z,2.90
2019-03-21T23:29:50.538Z,2.90
2019-03-21T23:32:51.401Z,2.80
2019-03-21T23:35:52.005Z,2.80
2019-03-21T23:38:52.593Z,2.80
2019-03-21T23:41:53.106Z,2.80
2019-03-21T23:44:54.282Z,2.70
2019-03-21T23:47:55.242Z,2.60
2019-03-21T23:50:55.875Z,2.50
2019-03-21T23:53:56.330Z,2.60
2019-03-21T23:57:04.598Z,2.50
2019-03-21T23:59:59.082Z,2.50
